createdAt,value
2023-01-06T00:04:11.022Z,10.69
2023-01-06T00:06:37.622Z,10.80
2023-01-06T00:09:05.495Z,10.82
2023-01-06T00:11:32.947Z,10.88
2023-01-06T00:14:00.104Z,10.86
2023-01-06T00:16:26.739Z,10.82
2023-01-06T00:18:57.575Z,10.75
2023-01-06T00:21:24.642Z,10.80
2023-01-06T00:23:51.442Z,10.90
2023-01-06T00:26:18.106Z,10.86
2023-01-06T00:28:44.631Z,10.88
2023-01-06T00:31:13.988Z,10.99
2023-01-06T00:33:41.769Z,10.89
2023-01-06T00:36:09.568Z,10.75
2023-01-06T00:38:37.238Z,10.80
2023-01-06T00:41:29.424Z,10.70
2023-01-06T00:43:59.775Z,10.60
2023-01-06T00:46:29.746Z,10.40
2023-01-06T00:49:07.865Z,10.56
2023-01-06T00:51:39.293Z,10.75
2023-01-06T00:54:08.242Z,10.81
2023-01-06T00:56:44.671Z,10.84
2023-01-06T00:59:13.569Z,10.84
2023-01-06T01:01:41.594Z,10.92
2023-01-06T01:04:08.853Z,10.92
2023-01-06T01:06:36.606Z,10.91
2023-01-06T01:09:04.743Z,10.85
2023-01-06T01:11:49.861Z,10.89
2023-01-06T01:14:19.261Z,10.79
2023-01-06T01:16:46.129Z,10.64
2023-01-06T01:19:13.972Z,10.67
2023-01-06T01:24:12.101Z,10.46
2023-01-06T01:26:39.814Z,10.42
2023-01-06T01:29:06.784Z,10.46
2023-01-06T01:31:33.700Z,10.38
2023-01-06T01:34:02.162Z,10.32
2023-01-06T01:36:28.810Z,10.42
2023-01-06T01:38:58.871Z,10.40
2023-01-06T01:41:26.895Z,10.39
2023-01-06T01:43:54.733Z,10.48
2023-01-06T01:46:43.320Z,10.46
2023-01-06T01:49:23.366Z,10.38
2023-01-06T01:51:52.950Z,10.40
2023-01-06T01:54:27.112Z,10.46
2023-01-06T01:57:00.243Z,10.43
2023-01-06T01:59:31.269Z,10.39
2023-01-06T02:01:58.017Z,10.36
2023-01-06T02:04:28.210Z,10.34
2023-01-06T02:06:55.972Z,10.27
2023-01-06T02:09:28.784Z,10.30
2023-01-06T02:11:56.841Z,10.20
2023-01-06T02:14:26.611Z,10.10
2023-01-06T02:17:05.732Z,10.22
2023-01-06T02:19:51.012Z,10.17
2023-01-06T02:22:29.723Z,10.21
2023-01-06T02:25:18.841Z,10.26
2023-01-06T02:28:03.872Z,10.24
2023-01-06T02:30:52.897Z,10.22
2023-01-06T02:33:31.184Z,10.15
2023-01-06T02:36:09.782Z,10.25
2023-01-06T02:39:01.323Z,10.20
2023-01-06T02:41:39.516Z,10.21
2023-01-06T02:44:14.856Z,10.24
2023-01-06T02:47:02.457Z,10.25
2023-01-06T02:49:40.765Z,10.24
2023-01-06T02:52:20.978Z,10.26
2023-01-06T02:55:02.253Z,10.16
2023-01-06T02:57:51.983Z,10.20
2023-01-06T03:00:24.517Z,10.15
2023-01-06T03:02:58.428Z,10.14
2023-01-06T03:05:27.040Z,10.16
2023-01-06T03:07:55.396Z,10.09
2023-01-06T03:10:25.472Z,10.09
2023-01-06T03:12:56.898Z,10.12
2023-01-06T03:15:25.211Z,10.14
2023-01-06T03:17:52.585Z,10.24
2023-01-06T03:20:19.932Z,10.29
2023-01-06T03:22:47.874Z,10.30
2023-01-06T03:25:15.052Z,10.26
2023-01-06T03:27:41.664Z,10.33
2023-01-06T03:30:11.316Z,10.27
2023-01-06T03:32:54.734Z,10.24
2023-01-06T03:35:33.535Z,10.18
2023-01-06T03:38:13.556Z,10.18
2023-01-06T03:41:03.402Z,10.21
2023-01-06T03:43:52.601Z,10.25
2023-01-06T03:46:34.903Z,10.24
2023-01-06T03:49:25.839Z,10.19
2023-01-06T03:52:04.598Z,10.23
2023-01-06T03:54:48.655Z,10.18
2023-01-06T03:57:25.503Z,10.16
2023-01-06T04:00:03.433Z,10.23
2023-01-06T04:02:30.628Z,10.26
2023-01-06T04:05:01.963Z,10.23
2023-01-06T04:07:28.548Z,10.16
2023-01-06T04:09:55.139Z,10.23
2023-01-06T04:12:39.816Z,10.22
2023-01-06T04:15:29.584Z,10.20
2023-01-06T04:17:56.777Z,10.11
2023-01-06T04:20:28.766Z,10.15
2023-01-06T04:22:57.349Z,10.07
2023-01-06T04:25:24.216Z,10.10
2023-01-06T04:27:51.276Z,10.02
2023-01-06T04:30:18.271Z,9.90
2023-01-06T04:32:44.932Z,9.94
2023-01-06T04:35:11.782Z,9.96
2023-01-06T04:37:38.425Z,9.82
2023-01-06T04:40:07.756Z,9.80
2023-01-06T04:42:54.839Z,9.65
2023-01-06T04:45:21.980Z,9.71
2023-01-06T04:47:48.835Z,9.70
2023-01-06T04:50:15.456Z,9.87
2023-01-06T04:52:41.993Z,9.70
2023-01-06T04:55:09.075Z,9.31
2023-01-06T04:57:35.675Z,9.12
2023-01-06T05:00:02.328Z,9.17
2023-01-06T05:02:28.932Z,8.84
2023-01-06T05:04:55.442Z,8.84
2023-01-06T05:07:22.100Z,9.02
2023-01-06T05:09:48.693Z,8.72
2023-01-06T05:12:15.303Z,8.76
2023-01-06T05:14:41.862Z,8.55
2023-01-06T05:17:08.430Z,8.62
2023-01-06T05:19:35.022Z,8.74
2023-01-06T05:22:01.633Z,8.61
2023-01-06T05:24:28.253Z,8.96
2023-01-06T05:26:55.196Z,8.98
2023-01-06T05:29:21.799Z,9.06
2023-01-06T05:31:48.433Z,9.33
2023-01-06T05:34:15.094Z,9.41
2023-01-06T05:36:41.912Z,9.41
2023-01-06T05:39:08.577Z,9.28
2023-01-06T05:41:35.326Z,9.31
2023-01-06T05:44:02.103Z,9.31
2023-01-06T05:46:28.788Z,9.32
2023-01-06T05:48:55.441Z,9.39
2023-01-06T05:51:22.008Z,9.38
2023-01-06T05:53:48.890Z,9.45
2023-01-06T05:56:18.381Z,9.49
2023-01-06T05:58:47.008Z,9.45
2023-01-06T06:01:22.515Z,9.44
2023-01-06T06:03:50.160Z,9.52
2023-01-06T06:06:17.485Z,9.51
2023-01-06T06:08:44.083Z,9.49
2023-01-06T06:11:13.218Z,9.54
2023-01-06T06:13:45.246Z,9.52
2023-01-06T06:16:13.694Z,9.51
2023-01-06T06:18:44.260Z,9.48
2023-01-06T06:21:15.980Z,9.52
2023-01-06T06:23:43.121Z,9.64
2023-01-06T06:26:11.481Z,9.60
2023-01-06T06:28:38.979Z,9.54
2023-01-06T06:31:13.603Z,9.55
2023-01-06T06:33:40.932Z,9.46
2023-01-06T06:38:53.946Z,9.57
2023-01-06T06:41:21.587Z,9.57
2023-01-06T06:43:48.739Z,9.48
2023-01-06T06:46:15.494Z,9.54
2023-01-06T06:48:42.196Z,9.56
2023-01-06T06:53:43.238Z,9.60
2023-01-06T06:56:10.689Z,9.63
2023-01-06T06:58:37.910Z,9.72
2023-01-06T07:01:10.307Z,9.63
2023-01-06T07:03:37.323Z,9.69
2023-01-06T07:06:06.849Z,9.60
2023-01-06T07:08:33.885Z,9.67
2023-01-06T07:11:01.418Z,9.66
2023-01-06T07:13:28.374Z,9.67
2023-01-06T07:15:55.321Z,9.57
2023-01-06T07:18:22.185Z,9.48
2023-01-06T07:20:51.681Z,9.55
2023-01-06T07:23:18.283Z,9.55
2023-01-06T07:25:44.927Z,9.52
2023-01-06T07:28:11.452Z,9.40
2023-01-06T07:30:38.312Z,9.47
2023-01-06T07:33:05.175Z,9.55
2023-01-06T07:38:07.990Z,9.44
2023-01-06T07:45:45.936Z,9.68
2023-01-06T07:48:12.589Z,9.58
2023-01-06T07:50:39.218Z,9.57
2023-01-06T07:53:05.815Z,9.52
2023-01-06T07:55:32.430Z,9.44
2023-01-06T07:57:59.072Z,9.45
2023-01-06T08:00:26.101Z,9.42
2023-01-06T08:02:53.073Z,9.37
2023-01-06T08:05:19.776Z,9.45
2023-01-06T08:07:46.511Z,9.56
2023-01-06T08:10:13.117Z,9.39
2023-01-06T08:12:39.660Z,9.46
2023-01-06T08:15:06.776Z,9.56
2023-01-06T08:17:33.412Z,9.53
2023-01-06T08:20:00.075Z,9.53
2023-01-06T08:22:26.715Z,9.47
2023-01-06T08:24:55.907Z,9.55
2023-01-06T08:27:22.534Z,9.47
2023-01-06T08:29:50.326Z,9.51
2023-01-06T08:32:16.989Z,9.51
2023-01-06T08:34:43.583Z,9.61
2023-01-06T08:37:10.193Z,9.52
2023-01-06T08:39:36.847Z,9.47
2023-01-06T08:42:03.477Z,9.42
2023-01-06T08:44:30.245Z,9.43
2023-01-06T08:46:56.943Z,9.46
2023-01-06T08:49:23.504Z,9.55
2023-01-06T08:51:50.070Z,9.57
2023-01-06T08:54:16.787Z,9.58
2023-01-06T08:56:46.303Z,9.65
2023-01-06T08:59:15.481Z,9.71
2023-01-06T09:01:43.074Z,9.67
2023-01-06T09:04:11.255Z,9.68
2023-01-06T09:06:38.769Z,9.71
2023-01-06T09:11:45.864Z,9.76
2023-01-06T09:14:16.403Z,9.77
2023-01-06T09:16:43.149Z,9.80
2023-01-06T09:19:12.887Z,9.80
2023-01-06T09:21:42.969Z,9.70
2023-01-06T09:24:14.554Z,9.81
2023-01-06T09:26:41.524Z,9.73
2023-01-06T09:29:08.090Z,9.82
2023-01-06T09:31:34.925Z,9.88
2023-01-06T09:34:01.701Z,9.89
2023-01-06T09:36:28.433Z,9.90
2023-01-06T09:38:55.016Z,9.87
2023-01-06T09:41:51.243Z,9.98
2023-01-06T09:44:31.559Z,9.98
2023-01-06T09:47:00.456Z,10.04
2023-01-06T09:49:39.025Z,10.07
2023-01-06T09:52:16.498Z,10.11
2023-01-06T09:54:53.380Z,10.08
2023-01-06T09:57:39.176Z,10.12
2023-01-06T10:00:23.977Z,10.22
2023-01-06T10:02:50.634Z,10.29
2023-01-06T10:05:17.181Z,10.31
2023-01-06T10:07:54.791Z,10.35
2023-01-06T10:10:48.303Z,10.47
2023-01-06T10:13:29.920Z,10.48
2023-01-06T10:16:27.819Z,10.49
2023-01-06T10:19:07.211Z,10.58
2023-01-06T10:22:04.909Z,10.64
2023-01-06T10:24:50.072Z,10.68
2023-01-06T10:27:38.001Z,10.93
2023-01-06T10:30:16.371Z,11.00
2023-01-06T10:32:44.685Z,11.03
2023-01-06T10:35:14.715Z,11.02
2023-01-06T10:37:44.223Z,11.12
2023-01-06T10:40:18.501Z,11.15
2023-01-06T10:42:55.667Z,11.23
2023-01-06T10:45:25.650Z,11.27
2023-01-06T10:47:53.283Z,11.26
2023-01-06T10:50:20.567Z,11.26
2023-01-06T10:52:48.209Z,11.30
2023-01-06T10:55:44.317Z,11.36
2023-01-06T10:58:25.715Z,11.35
2023-01-06T11:01:08.566Z,11.13
2023-01-06T11:03:36.586Z,11.17
2023-01-06T11:06:25.629Z,11.12
2023-01-06T11:08:52.497Z,11.16
2023-01-06T11:11:28.164Z,11.15
2023-01-06T11:14:03.666Z,11.20
2023-01-06T11:16:35.957Z,11.26
2023-01-06T11:19:07.782Z,11.26
2023-01-06T11:21:42.439Z,11.18
2023-01-06T11:24:14.246Z,11.27
2023-01-06T11:26:46.580Z,11.23
2023-01-06T11:29:25.755Z,11.21
2023-01-06T11:31:52.712Z,11.18
2023-01-06T11:34:24.868Z,11.30
2023-01-06T11:36:52.643Z,11.36
2023-01-06T11:39:27.267Z,11.32
2023-01-06T11:41:56.211Z,11.30
2023-01-06T11:44:34.325Z,11.35
2023-01-06T11:47:07.029Z,11.36
2023-01-06T11:49:41.392Z,11.52
2023-01-06T11:52:19.944Z,11.51
2023-01-06T11:54:57.750Z,11.50
2023-01-06T11:57:31.148Z,11.57
2023-01-06T12:00:32.666Z,11.48
2023-01-06T12:03:11.149Z,11.39
2023-01-06T12:05:43.189Z,11.41
2023-01-06T12:08:21.690Z,11.48
2023-01-06T12:10:58.839Z,11.36
2023-01-06T12:13:25.988Z,11.34
2023-01-06T12:16:02.903Z,11.32
2023-01-06T12:18:33.147Z,11.34
2023-01-06T12:21:01.541Z,11.42
2023-01-06T12:23:34.407Z,11.53
2023-01-06T12:26:04.897Z,11.44
2023-01-06T12:28:35.905Z,11.44
2023-01-06T12:31:17.863Z,11.44
2023-01-06T12:34:07.389Z,11.33
2023-01-06T12:37:01.721Z,11.35
2023-01-06T12:42:26.361Z,11.24
2023-01-06T12:44:52.887Z,11.28
2023-01-06T12:47:36.352Z,11.28
2023-01-06T12:50:02.974Z,11.27
2023-01-06T12:52:39.859Z,11.27
2023-01-06T12:55:08.869Z,11.25
2023-01-06T12:57:38.070Z,11.31
2023-01-06T13:00:13.687Z,11.29
2023-01-06T13:03:11.046Z,11.28
2023-01-06T13:05:50.719Z,11.30
2023-01-06T13:08:42.223Z,11.26
2023-01-06T13:11:30.696Z,11.30
2023-01-06T13:14:07.436Z,11.29
2023-01-06T13:16:42.993Z,11.27
2023-01-06T13:19:28.124Z,11.30
2023-01-06T13:21:57.559Z,11.30
2023-01-06T13:24:39.191Z,11.20
2023-01-06T13:27:27.504Z,11.25
2023-01-06T13:30:11.833Z,11.26
2023-01-06T13:32:53.611Z,11.20
2023-01-06T13:35:41.721Z,11.22
2023-01-06T13:38:32.986Z,11.14
2023-01-06T13:41:02.115Z,11.16
2023-01-06T13:43:31.010Z,11.19
2023-01-06T13:46:02.612Z,11.28
2023-01-06T13:48:36.444Z,11.28
2023-01-06T13:51:07.349Z,11.41
2023-01-06T13:53:42.338Z,11.38
2023-01-06T13:56:14.632Z,11.58
2023-01-06T13:58:45.568Z,11.41
2023-01-06T14:01:21.443Z,11.42
2023-01-06T14:03:50.615Z,11.29
2023-01-06T14:06:38.149Z,11.21
2023-01-06T14:09:17.983Z,11.31
2023-01-06T14:11:45.193Z,11.52
2023-01-06T14:14:25.114Z,11.54
2023-01-06T14:16:54.472Z,11.38
2023-01-06T14:19:24.472Z,11.20
2023-01-06T14:21:54.044Z,11.11
2023-01-06T14:24:23.098Z,11.01
2023-01-06T14:26:58.445Z,11.14
2023-01-06T14:29:40.214Z,11.14
2023-01-06T14:32:29.944Z,11.12
2023-01-06T14:35:00.291Z,11.25
2023-01-06T14:37:35.667Z,11.24
2023-01-06T14:40:03.996Z,11.18
2023-01-06T14:42:39.258Z,11.22
2023-01-06T14:45:44.391Z,11.22
2023-01-06T14:48:16.459Z,11.11
2023-01-06T14:53:33.421Z,11.05
2023-01-06T14:56:00.702Z,11.01
2023-01-06T14:58:28.210Z,11.00
2023-01-06T15:03:28.645Z,11.00
2023-01-06T15:08:53.646Z,10.87
2023-01-06T15:11:24.619Z,10.79
2023-01-06T15:13:51.306Z,10.84
2023-01-06T15:16:38.125Z,10.71
2023-01-06T15:19:10.975Z,10.73
2023-01-06T15:24:20.610Z,10.72
2023-01-06T15:26:48.129Z,10.77
2023-01-06T15:29:17.914Z,10.73
2023-01-06T15:31:46.989Z,10.79
2023-01-06T15:34:22.423Z,10.69
2023-01-06T15:36:52.164Z,10.79
2023-01-06T15:39:29.798Z,10.77
2023-01-06T15:41:58.268Z,10.69
2023-01-06T15:44:33.848Z,10.59
2023-01-06T15:47:12.433Z,11.41
2023-01-06T15:49:53.659Z,12.38
2023-01-06T15:52:27.864Z,12.55
2023-01-06T15:54:56.580Z,11.79
2023-01-06T15:59:59.795Z,11.17
2023-01-06T16:02:30.887Z,10.96
2023-01-06T16:04:59.644Z,10.97
2023-01-06T16:07:36.584Z,10.83
2023-01-06T16:10:03.306Z,10.74
2023-01-06T16:12:30.024Z,10.73
2023-01-06T16:17:32.829Z,10.63
2023-01-06T16:20:02.942Z,10.59
2023-01-06T16:22:38.135Z,10.61
2023-01-06T16:25:21.769Z,10.59
2023-01-06T16:27:50.935Z,10.52
2023-01-06T16:30:23.849Z,10.56
2023-01-06T16:35:26.293Z,10.50
2023-01-06T16:37:53.123Z,10.46
2023-01-06T16:40:21.976Z,10.49
2023-01-06T16:42:49.705Z,10.45
2023-01-06T16:45:24.331Z,10.51
2023-01-06T16:47:51.374Z,10.51
2023-01-06T16:50:20.071Z,10.53
2023-01-06T16:52:54.589Z,10.58
2023-01-06T16:55:22.669Z,10.42
2023-01-06T16:57:50.369Z,10.43
2023-01-06T17:00:22.155Z,10.35
2023-01-06T17:02:49.965Z,10.34
2023-01-06T17:05:22.214Z,10.36
2023-01-06T17:07:49.657Z,10.41
2023-01-06T17:10:20.118Z,10.34
2023-01-06T17:13:20.773Z,10.28
2023-01-06T17:15:54.964Z,10.41
2023-01-06T17:18:25.758Z,10.49
2023-01-06T17:20:58.399Z,10.57
2023-01-06T17:23:25.000Z,10.47
2023-01-06T17:25:59.583Z,10.48
2023-01-06T17:28:26.177Z,10.45
2023-01-06T17:30:52.831Z,10.57
2023-01-06T17:33:20.030Z,10.55
2023-01-06T17:35:55.137Z,10.54
2023-01-06T17:38:26.019Z,10.31
2023-01-06T17:40:54.662Z,10.22
2023-01-06T17:43:23.895Z,10.25
2023-01-06T17:45:50.681Z,10.30
2023-01-06T17:48:17.470Z,10.12
2023-01-06T17:50:48.554Z,9.97
2023-01-06T17:53:38.368Z,9.99
2023-01-06T17:56:07.986Z,9.86
2023-01-06T17:58:39.807Z,9.97
2023-01-06T18:01:10.949Z,9.80
2023-01-06T18:03:41.293Z,9.73
2023-01-06T18:06:19.379Z,10.02
2023-01-06T18:08:48.589Z,9.79
2023-01-06T18:11:23.096Z,10.01
2023-01-06T18:13:51.720Z,10.14
2023-01-06T18:16:33.253Z,10.12
2023-01-06T18:19:24.010Z,9.98
2023-01-06T18:21:50.719Z,10.11
2023-01-06T18:24:22.690Z,10.16
2023-01-06T18:26:53.987Z,10.22
2023-01-06T18:29:36.336Z,10.00
2023-01-06T18:32:21.322Z,9.86
2023-01-06T18:34:50.026Z,10.11
2023-01-06T18:37:17.775Z,10.28
2023-01-06T18:39:50.157Z,10.32
2023-01-06T18:42:35.183Z,10.05
2023-01-06T18:45:12.342Z,10.09
2023-01-06T18:47:41.696Z,10.10
2023-01-06T18:50:29.144Z,10.05
2023-01-06T18:53:02.329Z,10.04
2023-01-06T18:55:38.620Z,10.05
2023-01-06T18:58:35.890Z,10.14
2023-01-06T19:01:13.252Z,10.07
2023-01-06T19:04:10.057Z,10.04
2023-01-06T19:06:40.290Z,10.20
2023-01-06T19:09:16.813Z,10.29
2023-01-06T19:11:43.708Z,10.34
2023-01-06T19:14:18.389Z,10.16
2023-01-06T19:16:52.415Z,10.33
2023-01-06T19:19:28.649Z,10.24
2023-01-06T19:22:21.506Z,10.00
2023-01-06T19:24:56.268Z,10.06
2023-01-06T19:27:40.340Z,10.02
2023-01-06T19:30:12.819Z,10.03
2023-01-06T19:32:39.940Z,10.06
2023-01-06T19:35:18.737Z,10.01
2023-01-06T19:37:45.357Z,10.07
2023-01-06T19:40:32.044Z,9.90
2023-01-06T19:43:17.301Z,9.94
2023-01-06T19:45:44.370Z,9.97
2023-01-06T19:48:32.041Z,9.77
2023-01-06T19:51:30.183Z,9.88
2023-01-06T19:56:41.467Z,9.80
2023-01-06T19:59:19.566Z,9.62
2023-01-06T20:01:46.929Z,9.74
2023-01-06T20:04:23.979Z,9.80
2023-01-06T20:06:50.939Z,9.76
2023-01-06T20:09:17.586Z,9.72
2023-01-06T20:11:44.210Z,9.93
2023-01-06T20:14:11.078Z,9.95
2023-01-06T20:16:37.857Z,9.94
2023-01-06T20:19:04.735Z,9.82
2023-01-06T20:21:31.337Z,9.90
2023-01-06T20:23:58.663Z,9.96
2023-01-06T20:26:26.063Z,10.07
2023-01-06T20:28:52.815Z,10.04
2023-01-06T20:31:19.483Z,9.98
2023-01-06T20:33:46.331Z,9.89
2023-01-06T20:36:17.141Z,9.85
2023-01-06T20:38:45.049Z,9.78
2023-01-06T20:41:12.418Z,9.79
2023-01-06T20:43:38.997Z,9.74
2023-01-06T20:46:05.953Z,9.68
2023-01-06T20:48:32.723Z,9.81
2023-01-06T20:50:59.624Z,9.73
2023-01-06T20:53:26.330Z,9.85
2023-01-06T20:58:25.166Z,9.79
2023-01-06T21:00:51.763Z,9.62
2023-01-06T21:03:18.303Z,9.66
2023-01-06T21:10:54.360Z,9.68
2023-01-06T21:13:23.973Z,9.70
2023-01-06T21:15:50.835Z,9.79
2023-01-06T21:18:17.389Z,9.79
2023-01-06T21:20:43.989Z,9.91
2023-01-06T21:23:10.861Z,9.86
2023-01-06T21:25:37.390Z,10.02
2023-01-06T21:28:04.130Z,9.97
2023-01-06T21:30:32.152Z,10.00
2023-01-06T21:32:58.949Z,9.98
2023-01-06T21:35:25.504Z,9.98
2023-01-06T21:37:52.067Z,9.90
2023-01-06T21:40:18.744Z,9.99
2023-01-06T21:43:03.657Z,9.90
2023-01-06T21:45:30.376Z,9.90
2023-01-06T21:47:56.890Z,9.88
2023-01-06T21:50:25.977Z,9.86
2023-01-06T21:52:53.834Z,10.15
2023-01-06T21:55:20.445Z,10.32
2023-01-06T21:57:47.986Z,10.58
2023-01-06T22:00:14.785Z,10.32
2023-01-06T22:02:41.798Z,10.32
2023-01-06T22:05:09.190Z,10.26
2023-01-06T22:07:39.643Z,10.17
2023-01-06T22:10:08.463Z,10.10
2023-01-06T22:12:36.057Z,10.15
2023-01-06T22:15:04.094Z,10.24
2023-01-06T22:17:31.151Z,10.28
2023-01-06T22:19:57.895Z,10.33
2023-01-06T22:22:25.138Z,10.25
2023-01-06T22:24:54.525Z,10.27
2023-01-06T22:27:22.005Z,10.32
2023-01-06T22:29:48.546Z,10.21
2023-01-06T22:32:15.068Z,10.02
2023-01-06T22:34:41.632Z,9.97
2023-01-06T22:37:08.145Z,9.99
2023-01-06T22:39:34.702Z,9.99
2023-01-06T22:42:01.528Z,10.24
2023-01-06T22:44:28.260Z,10.20
2023-01-06T22:49:26.247Z,10.05
2023-01-06T22:51:52.852Z,10.04
2023-01-06T22:54:19.464Z,9.93
2023-01-06T22:56:46.056Z,9.94
2023-01-06T22:59:12.596Z,9.83
2023-01-06T23:01:39.285Z,9.90
2023-01-06T23:04:05.902Z,9.96
2023-01-06T23:06:32.540Z,9.95
2023-01-06T23:09:00.946Z,9.92
2023-01-06T23:11:29.169Z,9.95
2023-01-06T23:13:58.029Z,9.99
2023-01-06T23:16:26.875Z,10.03
2023-01-06T23:18:54.297Z,10.06
2023-01-06T23:21:26.839Z,10.03
2023-01-06T23:23:54.275Z,9.97
2023-01-06T23:26:24.803Z,10.02
2023-01-06T23:34:23.130Z,9.84
2023-01-06T23:36:49.729Z,9.82
2023-01-06T23:39:19.896Z,9.81
2023-01-06T23:41:46.750Z,9.69
2023-01-06T23:44:18.150Z,9.72
2023-01-06T23:46:45.497Z,9.82
2023-01-06T23:51:45.741Z,9.80
2023-01-06T23:54:13.148Z,9.82
2023-01-06T23:56:40.210Z,9.79
2023-01-06T23:59:08.411Z,9.80
